createdAt,value
2022-08-28T00:00:57.172Z,48.57
2022-08-28T00:01:57.172Z,43.15
2022-08-28T00:02:57.217Z,43.17
2022-08-28T00:03:57.118Z,51.68
2022-08-28T00:04:57.200Z,49.77
2022-08-28T00:05:57.127Z,53.09
2022-08-28T00:06:57.116Z,48.40
2022-08-28T00:07:57.140Z,43.13
2022-08-28T00:08:57.120Z,43.13
2022-08-28T00:09:57.106Z,48.77
2022-08-28T00:10:57.060Z,43.30
2022-08-28T00:11:57.048Z,48.39
2022-08-28T00:12:57.076Z,44.56
2022-08-28T00:13:57.041Z,46.21
2022-08-28T00:14:57.052Z,51.26
2022-08-28T00:15:57.126Z,49.45
2022-08-28T00:16:57.038Z,51.20
2022-08-28T00:17:57.049Z,49.81
2022-08-28T00:18:57.084Z,53.04
2022-08-28T00:19:57.045Z,43.84
2022-08-28T00:20:56.980Z,52.33
2022-08-28T00:21:56.996Z,44.11
2022-08-28T00:22:57.012Z,48.94
2022-08-28T00:23:57.004Z,53.76
2022-08-28T00:24:56.987Z,43.43
2022-08-28T00:25:56.957Z,54.20
2022-08-28T00:26:57.024Z,47.41
2022-08-28T00:27:56.962Z,42.91
2022-08-28T00:28:57.054Z,42.87
2022-08-28T00:29:56.946Z,54.47
2022-08-28T00:30:57.020Z,48.66
2022-08-28T00:31:56.936Z,42.88
2022-08-28T00:32:56.943Z,42.81
2022-08-28T00:33:56.909Z,42.84
2022-08-28T00:34:56.935Z,48.62
2022-08-28T00:35:56.916Z,42.92
2022-08-28T00:36:56.905Z,42.81
2022-08-28T00:37:56.903Z,42.85
2022-08-28T00:38:56.850Z,48.59
2022-08-28T00:39:56.968Z,42.83
2022-08-28T00:40:56.907Z,55.23
2022-08-28T00:41:57.802Z,42.99
2022-08-28T00:42:56.851Z,42.84
2022-08-28T00:43:56.845Z,42.82
2022-08-28T00:44:56.839Z,42.79
2022-08-28T00:45:56.844Z,53.66
2022-08-28T00:46:56.797Z,47.99
2022-08-28T00:47:56.852Z,42.83
2022-08-28T00:48:56.801Z,42.83
2022-08-28T00:49:56.805Z,48.60
2022-08-28T00:51:00.612Z,42.88
2022-08-28T00:51:56.800Z,42.89
2022-08-28T00:52:56.796Z,43.47
2022-08-28T00:53:58.924Z,52.13
2022-08-28T00:54:59.174Z,42.91
2022-08-28T00:55:56.731Z,42.82
2022-08-28T00:56:56.763Z,42.79
2022-08-28T00:57:56.711Z,48.82
2022-08-28T00:58:56.779Z,42.82
2022-08-28T00:59:56.708Z,42.82
2022-08-28T01:00:56.678Z,42.86
2022-08-28T01:01:56.817Z,48.89
2022-08-28T01:02:56.727Z,44.13
2022-08-28T01:03:56.687Z,47.79
2022-08-28T01:04:56.699Z,42.87
2022-08-28T01:05:56.631Z,42.87
2022-08-28T01:06:56.761Z,42.87
2022-08-28T01:07:56.675Z,42.89
2022-08-28T01:08:56.631Z,42.99
2022-08-28T01:09:56.631Z,55.73
2022-08-28T01:10:56.621Z,43.41
2022-08-28T01:11:56.675Z,42.92
2022-08-28T01:12:56.624Z,42.93
2022-08-28T01:13:56.568Z,42.90
2022-08-28T01:14:56.633Z,42.97
2022-08-28T01:15:56.616Z,43.01
2022-08-28T01:16:56.613Z,42.99
2022-08-28T01:17:56.580Z,43.04
2022-08-28T01:18:56.649Z,53.04
2022-08-28T01:19:56.572Z,43.30
2022-08-28T01:20:56.555Z,48.51
2022-08-28T01:21:56.542Z,43.37
2022-08-28T01:22:56.532Z,45.64
2022-08-28T01:23:56.532Z,55.44
2022-08-28T01:24:56.532Z,43.18
2022-08-28T01:25:56.539Z,43.06
2022-08-28T01:26:56.505Z,43.17
2022-08-28T01:27:56.481Z,43.10
2022-08-28T01:28:56.508Z,43.07
2022-08-28T01:29:56.485Z,43.02
2022-08-28T01:30:56.513Z,47.82
2022-08-28T01:31:56.482Z,43.10
2022-08-28T01:32:56.473Z,43.11
2022-08-28T01:33:56.453Z,45.41
2022-08-28T01:34:56.459Z,43.93
2022-08-28T01:35:56.532Z,45.63
2022-08-28T01:36:56.448Z,45.76
2022-08-28T01:37:56.413Z,47.45
2022-08-28T01:38:56.424Z,43.40
2022-08-28T01:39:57.323Z,44.89
2022-08-28T01:40:56.411Z,46.18
2022-08-28T01:41:56.413Z,49.83
2022-08-28T01:42:57.302Z,43.14
2022-08-28T01:43:56.366Z,43.21
2022-08-28T01:44:56.350Z,43.19
2022-08-28T02:03:49.984Z,45.43
2022-08-28T02:04:49.963Z,46.64
2022-08-28T02:05:51.101Z,42.94
2022-08-28T02:06:52.016Z,42.98
2022-08-28T02:07:50.989Z,43.02
2022-08-28T02:08:51.020Z,43.03
2022-08-28T02:09:51.027Z,43.72
2022-08-28T02:10:51.059Z,49.15
2022-08-28T02:11:50.995Z,46.99
2022-08-28T02:12:51.013Z,48.49
2022-08-28T02:13:51.012Z,43.09
2022-08-28T02:14:50.978Z,42.95
2022-08-28T02:15:51.029Z,52.86
2022-08-28T02:16:50.976Z,43.54
2022-08-28T02:17:50.983Z,43.33
2022-08-28T02:18:50.957Z,48.89
2022-08-28T02:19:50.911Z,52.05
2022-08-28T02:20:50.915Z,43.13
2022-08-28T02:21:50.983Z,43.15
2022-08-28T02:23:24.346Z,43.63
2022-08-28T02:23:50.948Z,46.19
2022-08-28T02:24:50.983Z,46.19
2022-08-28T02:25:50.985Z,42.97
2022-08-28T02:26:50.937Z,53.69
2022-08-28T02:27:50.951Z,42.99
2022-08-28T02:28:51.665Z,43.90
2022-08-28T02:29:50.995Z,46.35
2022-08-28T02:30:50.978Z,48.96
2022-08-28T02:32:25.645Z,47.99
2022-08-28T02:32:50.984Z,43.28
2022-08-28T02:33:53.019Z,43.18
2022-08-28T02:34:52.508Z,43.38
2022-08-28T02:35:50.985Z,45.62
2022-08-28T02:36:50.929Z,47.34
2022-08-28T02:37:51.508Z,44.99
2022-08-28T02:38:55.361Z,46.14
2022-08-28T02:39:53.570Z,48.69
2022-08-28T02:41:27.089Z,43.88
2022-08-28T02:41:51.259Z,52.52
2022-08-28T02:42:51.850Z,43.42
2022-08-28T02:43:50.909Z,43.19
2022-08-28T02:44:50.956Z,51.84
2022-08-28T02:45:51.899Z,45.38
2022-08-28T02:46:50.828Z,43.29
2022-08-28T02:47:50.830Z,46.80
2022-08-28T02:48:50.836Z,44.17
2022-08-28T02:49:50.780Z,43.10
2022-08-28T02:50:50.884Z,43.02
2022-08-28T02:52:25.078Z,43.80
2022-08-28T02:52:51.719Z,43.18
2022-08-28T02:53:50.721Z,43.30
2022-08-28T02:54:50.816Z,53.20
2022-08-28T02:55:50.856Z,43.50
2022-08-28T02:56:50.809Z,43.17
2022-08-28T02:58:24.219Z,43.69
2022-08-28T02:58:50.770Z,50.05
2022-08-28T02:59:51.448Z,44.61
2022-08-28T03:00:50.659Z,43.10
2022-08-28T03:01:50.799Z,43.24
2022-08-28T03:02:50.726Z,42.95
2022-08-28T03:03:50.617Z,42.97
2022-08-28T03:04:50.670Z,42.97
2022-08-28T03:05:50.604Z,42.93
2022-08-28T03:06:50.671Z,43.02
2022-08-28T03:07:50.623Z,43.42
2022-08-28T03:08:50.622Z,42.94
2022-08-28T03:09:50.621Z,44.78
2022-08-28T03:10:50.623Z,48.37
2022-08-28T03:11:50.625Z,48.33
2022-08-28T03:12:50.679Z,45.52
2022-08-28T03:13:50.557Z,43.18
2022-08-28T03:14:50.562Z,48.43
2022-08-28T03:15:51.957Z,43.08
2022-08-28T03:16:51.633Z,49.09
2022-08-28T03:17:50.647Z,51.88
2022-08-28T03:18:50.565Z,43.24
2022-08-28T03:19:50.516Z,43.19
2022-08-28T03:20:50.584Z,43.03
2022-08-28T03:21:50.703Z,43.05
2022-08-28T03:22:50.612Z,43.07
2022-08-28T03:23:50.473Z,43.46
2022-08-28T03:24:50.536Z,52.09
2022-08-28T03:25:50.540Z,48.21
2022-08-28T03:26:50.509Z,56.69
2022-08-28T03:27:50.595Z,43.52
2022-08-28T03:28:50.591Z,43.12
2022-08-28T03:29:50.553Z,46.06
2022-08-28T03:30:50.690Z,44.83
2022-08-28T03:31:50.430Z,43.07
2022-08-28T03:32:50.444Z,51.66
2022-08-28T03:33:50.425Z,47.84
2022-08-28T03:34:50.377Z,46.07
2022-08-28T03:35:50.482Z,45.77
2022-08-28T03:36:51.124Z,48.43
2022-08-28T03:37:50.859Z,49.08
2022-08-28T03:38:50.473Z,43.92
2022-08-28T03:39:50.582Z,47.19
2022-08-28T03:40:50.559Z,44.12
2022-08-28T03:41:51.343Z,50.67
2022-08-28T03:42:53.036Z,51.32
2022-08-28T03:43:50.403Z,54.17
2022-08-28T03:45:23.793Z,50.99
2022-08-28T03:45:50.728Z,53.24
2022-08-28T03:46:50.449Z,57.10
2022-08-28T04:03:43.858Z,48.46
2022-08-28T04:04:46.024Z,46.53
2022-08-28T04:05:46.028Z,54.00
2022-08-28T04:06:45.297Z,56.69
2022-08-28T04:07:45.656Z,49.02
2022-08-28T04:08:45.051Z,43.80
2022-08-28T04:09:45.713Z,44.17
2022-08-28T04:10:46.033Z,52.57
2022-08-28T04:11:45.194Z,49.73
2022-08-28T04:12:47.085Z,50.15
2022-08-28T04:13:45.304Z,51.91
2022-08-28T04:14:45.136Z,44.17
2022-08-28T04:15:45.318Z,44.78
2022-08-28T04:16:45.938Z,57.94
2022-08-28T04:17:45.163Z,53.24
2022-08-28T04:18:45.710Z,43.96
2022-08-28T04:19:45.416Z,44.06
2022-08-28T04:20:46.454Z,54.51
2022-08-28T04:21:45.662Z,44.40
2022-08-28T04:22:47.073Z,54.39
2022-08-28T04:23:45.096Z,50.95
2022-08-28T04:24:45.303Z,56.02
2022-08-28T04:25:45.164Z,50.92
2022-08-28T04:26:45.554Z,53.23
2022-08-28T04:27:45.380Z,48.11
2022-08-28T04:28:45.578Z,43.97
2022-08-28T04:29:46.140Z,49.10
2022-08-28T04:30:45.473Z,50.37
2022-08-28T04:31:46.094Z,52.56
2022-08-28T04:32:45.068Z,55.74
2022-08-28T04:33:45.355Z,46.57
2022-08-28T04:34:47.094Z,57.28
2022-08-28T04:35:44.963Z,46.78
2022-08-28T04:36:45.021Z,53.03
2022-08-28T04:37:45.107Z,45.66
2022-08-28T04:38:45.327Z,49.85
2022-08-28T04:39:44.955Z,45.28
2022-08-28T04:40:45.884Z,52.84
2022-08-28T04:41:45.010Z,54.18
2022-08-28T04:42:45.967Z,53.19
2022-08-28T04:43:44.955Z,54.74
2022-08-28T04:44:45.748Z,54.24
2022-08-28T04:45:44.845Z,51.06
2022-08-28T04:46:44.905Z,51.09
2022-08-28T04:47:44.877Z,52.29
2022-08-28T04:48:44.793Z,46.78
2022-08-28T04:49:44.842Z,49.65
2022-08-28T04:50:45.381Z,44.54
2022-08-28T04:51:47.037Z,45.71
2022-08-28T04:52:46.506Z,54.93
2022-08-28T04:53:44.779Z,44.39
2022-08-28T04:55:18.243Z,44.84
2022-08-28T04:56:12.066Z,45.56
2022-08-28T04:56:44.957Z,45.78
2022-08-28T04:57:44.856Z,52.27
2022-08-28T04:58:44.906Z,49.87
2022-08-28T04:59:45.122Z,51.53
2022-08-28T05:00:45.418Z,51.62
2022-08-28T05:01:45.552Z,46.77
2022-08-28T05:02:44.707Z,44.50
2022-08-28T05:03:44.914Z,44.39
2022-08-28T05:04:45.444Z,44.27
2022-08-28T05:05:44.772Z,48.26
2022-08-28T05:06:44.886Z,49.59
2022-08-28T05:07:44.988Z,44.81
2022-08-28T05:08:44.862Z,51.27
2022-08-28T05:09:44.722Z,54.75
2022-08-28T05:10:45.627Z,44.92
2022-08-28T05:11:44.709Z,50.93
2022-08-28T05:12:45.454Z,49.79
2022-08-28T05:13:44.625Z,49.87
2022-08-28T05:14:44.494Z,50.07
2022-08-28T05:15:44.630Z,58.47
2022-08-28T05:16:44.688Z,45.56
2022-08-28T05:17:44.609Z,52.97
2022-08-28T05:18:44.593Z,49.51
2022-08-28T05:19:45.425Z,47.98
2022-08-28T05:20:44.571Z,49.80
2022-08-28T05:21:44.951Z,44.86
2022-08-28T05:22:44.613Z,49.49
2022-08-28T05:23:45.522Z,43.92
2022-08-28T05:24:44.709Z,49.14
2022-08-28T05:25:46.130Z,45.53
2022-08-28T05:26:44.477Z,49.58
2022-08-28T05:27:44.635Z,44.53
2022-08-28T05:28:44.494Z,53.24
2022-08-28T05:29:44.460Z,46.20
2022-08-28T05:30:44.454Z,52.74
2022-08-28T05:31:46.434Z,51.07
2022-08-28T05:32:44.499Z,51.93
2022-08-28T05:33:44.462Z,52.31
2022-08-28T05:34:44.459Z,55.96
2022-08-28T05:35:45.339Z,45.30
2022-08-28T05:36:44.783Z,56.73
2022-08-28T05:37:44.670Z,45.59
2022-08-28T05:38:45.136Z,51.01
2022-08-28T05:39:44.537Z,53.48
2022-08-28T05:40:44.344Z,48.84
2022-08-28T05:42:12.662Z,44.48
2022-08-28T05:42:45.051Z,53.83
2022-08-28T05:43:46.484Z,50.45
2022-08-28T05:44:44.747Z,44.49
2022-08-28T05:45:44.691Z,49.50
2022-08-28T05:46:44.584Z,49.86
2022-08-28T05:47:44.486Z,48.72
2022-08-28T05:48:44.450Z,48.03
2022-08-28T05:49:44.847Z,49.06
2022-08-28T05:50:48.127Z,52.58
2022-08-28T05:51:44.472Z,47.83
2022-08-28T05:52:44.508Z,48.44
2022-08-28T05:53:44.852Z,50.54
2022-08-28T05:54:44.649Z,54.85
2022-08-28T05:55:45.422Z,52.89
2022-08-28T05:56:46.139Z,43.78
2022-08-28T05:57:44.688Z,46.93
2022-08-28T05:58:44.819Z,55.59
2022-08-28T05:59:45.114Z,52.14
2022-08-28T06:00:44.502Z,48.06
2022-08-28T06:01:45.011Z,49.88
2022-08-28T06:02:45.398Z,51.36
2022-08-28T06:03:45.281Z,51.03
2022-08-28T06:04:56.002Z,54.47
2022-08-28T06:05:45.651Z,55.28
2022-08-28T06:06:44.436Z,58.13
2022-08-28T06:07:44.395Z,51.31
2022-08-28T06:08:58.693Z,48.91
2022-08-28T06:09:45.653Z,43.18
2022-08-28T06:11:16.704Z,43.95
2022-08-28T06:11:44.755Z,51.44
2022-08-28T06:12:44.468Z,55.62
2022-08-28T06:13:44.273Z,54.22
2022-08-28T06:14:44.921Z,48.52
2022-08-28T06:15:44.709Z,50.62
2022-08-28T06:16:45.120Z,53.08
2022-08-28T06:17:45.235Z,59.51
2022-08-28T06:18:44.450Z,51.29
2022-08-28T06:20:11.346Z,53.68
2022-08-28T06:23:31.835Z,43.18
2022-08-28T06:24:33.128Z,48.17
2022-08-28T06:25:32.180Z,48.78
2022-08-28T06:26:32.151Z,47.57
2022-08-28T06:27:32.114Z,53.27
2022-08-28T06:28:32.207Z,55.53
2022-08-28T06:29:32.278Z,50.79
2022-08-28T06:30:32.163Z,47.92
2022-08-28T06:31:33.395Z,58.43
2022-08-28T06:32:33.876Z,52.74
2022-08-28T06:33:32.832Z,55.68
2022-08-28T06:34:32.344Z,59.38
2022-08-28T06:35:32.829Z,53.73
2022-08-28T06:36:32.835Z,52.61
2022-08-28T06:37:32.874Z,50.43
2022-08-28T06:38:32.230Z,53.96
2022-08-28T06:40:09.395Z,52.41
2022-08-28T06:40:33.135Z,47.28
2022-08-28T06:42:06.147Z,44.00
2022-08-28T06:42:32.149Z,53.28
2022-08-28T06:44:05.917Z,55.86
2022-08-28T06:44:32.021Z,56.33
2022-08-28T06:45:35.060Z,50.26
2022-08-28T06:46:31.927Z,54.45
2022-08-28T06:47:32.093Z,53.37
2022-08-28T06:48:32.699Z,52.51
2022-08-28T06:49:32.031Z,53.92
2022-08-28T06:50:32.721Z,58.61
2022-08-28T06:51:31.858Z,59.59
2022-08-28T06:52:31.908Z,61.16
2022-08-28T06:53:31.820Z,62.49
2022-08-28T06:54:31.952Z,53.82
2022-08-28T06:55:31.941Z,47.47
2022-08-28T06:56:31.832Z,58.51
2022-08-28T06:57:31.805Z,50.59
2022-08-28T06:58:31.923Z,49.25
2022-08-28T06:59:31.916Z,52.31
2022-08-28T07:00:31.833Z,54.81
2022-08-28T07:01:31.801Z,56.80
2022-08-28T07:02:32.029Z,44.44
2022-08-28T07:03:31.847Z,64.24
2022-08-28T07:04:31.776Z,60.85
2022-08-28T07:05:31.873Z,58.44
2022-08-28T07:06:31.770Z,55.64
2022-08-28T07:07:32.606Z,56.71
2022-08-28T07:08:31.810Z,60.24
2022-08-28T07:09:31.704Z,59.33
2022-08-28T07:11:06.107Z,59.63
2022-08-28T07:11:31.845Z,59.52
2022-08-28T07:12:32.465Z,53.03
2022-08-28T07:13:33.942Z,51.75
2022-08-28T07:14:33.465Z,59.31
2022-08-28T07:15:34.003Z,57.22
2022-08-28T07:16:33.969Z,60.25
2022-08-28T07:17:32.296Z,60.45
2022-08-28T07:18:32.510Z,56.23
2022-08-28T07:19:33.976Z,48.03
2022-08-28T07:23:30.756Z,59.90
2022-08-28T07:24:31.171Z,52.64
2022-08-28T07:25:32.889Z,55.56
2022-08-28T07:26:33.036Z,56.51
2022-08-28T07:27:31.135Z,50.10
2022-08-28T07:28:32.757Z,57.78
2022-08-28T07:29:31.016Z,56.10
2022-08-28T07:30:32.494Z,57.84
2022-08-28T07:31:31.189Z,57.80
2022-08-28T07:32:31.029Z,56.87
2022-08-28T07:33:32.650Z,51.81
2022-08-28T07:34:30.974Z,57.86
2022-08-28T07:35:33.361Z,53.71
2022-08-28T07:36:31.796Z,54.61
2022-08-28T07:37:31.030Z,54.71
2022-08-28T07:38:31.049Z,54.57
2022-08-28T07:39:31.680Z,52.78
2022-08-28T07:40:30.932Z,53.00
2022-08-28T07:41:31.206Z,53.39
2022-08-28T07:42:33.929Z,61.13
2022-08-28T07:43:32.131Z,47.07
2022-08-28T07:44:30.971Z,56.47
2022-08-28T07:45:31.011Z,63.60
2022-08-28T07:46:31.774Z,58.71
2022-08-28T07:47:30.892Z,54.45
2022-08-28T07:48:30.999Z,54.04
2022-08-28T07:49:30.913Z,57.58
2022-08-28T07:50:30.998Z,58.15
2022-08-28T07:51:31.774Z,56.85
2022-08-28T07:52:32.797Z,59.03
2022-08-28T07:53:36.356Z,51.96
2022-08-28T07:54:32.642Z,54.01
2022-08-28T07:55:30.834Z,50.68
2022-08-28T07:56:30.896Z,62.11
2022-08-28T07:57:30.842Z,61.42
2022-08-28T07:58:32.272Z,56.20
2022-08-28T07:59:36.935Z,51.18
2022-08-28T08:00:32.925Z,57.88
2022-08-28T08:01:33.091Z,51.00
2022-08-28T08:02:31.078Z,60.71
2022-08-28T08:03:30.851Z,61.55
2022-08-28T08:04:31.279Z,53.78
2022-08-28T08:05:31.601Z,59.85
2022-08-28T08:06:33.818Z,57.82
2022-08-28T08:07:32.676Z,60.33
2022-08-28T08:08:30.714Z,50.91
2022-08-28T08:09:30.940Z,61.24
2022-08-28T08:10:34.244Z,60.37
2022-08-28T08:11:32.166Z,54.89
2022-08-28T08:12:33.276Z,48.19
2022-08-28T08:13:30.736Z,59.00
2022-08-28T08:14:32.301Z,62.76
2022-08-28T08:15:31.872Z,56.32
2022-08-28T08:16:31.275Z,52.83
2022-08-28T08:17:31.277Z,53.06
2022-08-28T08:19:06.828Z,57.11
2022-08-28T08:19:30.548Z,60.10
2022-08-28T08:20:31.755Z,59.49
2022-08-28T08:21:31.550Z,56.01
2022-08-28T08:22:31.419Z,57.86
2022-08-28T08:24:04.444Z,60.06
2022-08-28T08:24:30.464Z,55.83
2022-08-28T08:25:30.468Z,57.26
2022-08-28T08:26:30.448Z,55.37
2022-08-28T08:27:30.429Z,56.17
2022-08-28T08:28:30.436Z,60.63
2022-08-28T08:29:30.528Z,56.41
2022-08-28T08:30:30.437Z,56.08
2022-08-28T08:31:30.508Z,53.55
2022-08-28T08:32:30.458Z,60.26
2022-08-28T08:33:31.346Z,55.15
2022-08-28T08:34:30.527Z,51.43
2022-08-28T08:35:30.446Z,54.02
2022-08-28T08:36:30.455Z,62.83
2022-08-28T08:37:30.473Z,62.70
2022-08-28T08:38:30.405Z,58.37
2022-08-28T08:39:31.798Z,56.05
2022-08-28T08:40:30.446Z,65.08
2022-08-28T08:41:30.402Z,65.44
2022-08-28T08:42:30.389Z,60.57
2022-08-28T08:43:30.377Z,60.88
2022-08-28T08:44:33.456Z,59.49
2022-08-28T08:45:30.362Z,60.52
2022-08-28T08:46:30.370Z,55.44
2022-08-28T08:47:30.399Z,57.98
2022-08-28T08:48:30.377Z,58.21
2022-08-28T08:49:30.441Z,61.89
2022-08-28T08:50:30.305Z,56.72
2022-08-28T08:51:30.356Z,60.71
2022-08-28T08:52:30.286Z,55.98
2022-08-28T08:53:30.270Z,50.44
2022-08-28T08:54:30.301Z,55.25
2022-08-28T08:55:30.280Z,56.15
2022-08-28T08:56:34.564Z,47.01
2022-08-28T08:57:30.298Z,54.06
2022-08-28T08:58:30.370Z,57.37
2022-08-28T08:59:30.228Z,58.58
2022-08-28T09:00:30.311Z,61.28
2022-08-28T09:01:30.290Z,51.55
2022-08-28T09:02:31.564Z,58.48
2022-08-28T09:03:30.322Z,56.80
2022-08-28T09:04:30.225Z,59.69
2022-08-28T09:05:30.276Z,61.48
2022-08-28T09:06:30.223Z,61.49
2022-08-28T09:07:30.149Z,65.49
2022-08-28T09:08:30.970Z,59.00
2022-08-28T09:09:30.152Z,60.91
2022-08-28T09:10:30.169Z,60.51
2022-08-28T09:11:30.209Z,65.01
2022-08-28T09:12:30.121Z,57.19
2022-08-28T09:13:30.146Z,62.27
2022-08-28T09:14:30.199Z,63.77
2022-08-28T09:15:30.146Z,64.21
2022-08-28T09:16:30.133Z,62.36
2022-08-28T09:17:30.114Z,64.09
2022-08-28T09:18:30.128Z,61.43
2022-08-28T09:19:30.085Z,65.61
2022-08-28T09:20:33.165Z,62.61
2022-08-28T09:21:30.058Z,64.78
2022-08-28T09:22:31.053Z,63.82
2022-08-28T09:23:30.299Z,61.10
2022-08-28T09:24:30.045Z,61.37
2022-08-28T09:25:30.104Z,66.31
2022-08-28T09:26:30.065Z,55.73
2022-08-28T09:27:30.039Z,62.37
2022-08-28T09:28:30.036Z,60.65
2022-08-28T09:29:29.994Z,62.31
2022-08-28T09:30:29.973Z,62.41
2022-08-28T09:31:30.056Z,60.97
2022-08-28T09:32:29.965Z,66.00
2022-08-28T09:33:30.009Z,64.85
2022-08-28T09:34:29.980Z,59.21
2022-08-28T09:35:29.983Z,66.67
2022-08-28T09:36:29.937Z,65.68
2022-08-28T09:37:29.955Z,60.48
2022-08-28T09:38:29.957Z,59.12
2022-08-28T09:39:29.907Z,62.91
2022-08-28T09:40:31.940Z,65.51
2022-08-28T09:41:30.570Z,65.57
2022-08-28T09:42:30.019Z,65.37
2022-08-28T09:43:29.891Z,68.33
2022-08-28T09:44:29.894Z,61.31
2022-08-28T09:45:29.910Z,61.52
2022-08-28T09:46:29.952Z,65.29
2022-08-28T09:47:29.871Z,64.78
2022-08-28T09:48:29.839Z,66.75
2022-08-28T09:49:29.914Z,66.73
2022-08-28T09:50:29.842Z,61.65
2022-08-28T09:51:31.176Z,58.58
2022-08-28T09:52:29.890Z,59.61
2022-08-28T09:53:30.591Z,64.63
2022-08-28T09:54:29.828Z,57.93
2022-08-28T09:55:29.851Z,62.32
2022-08-28T09:56:29.848Z,60.49
2022-08-28T09:57:29.828Z,65.68
2022-08-28T09:58:29.824Z,65.96
2022-08-28T09:59:29.772Z,64.80
2022-08-28T10:00:29.837Z,66.76
2022-08-28T10:01:29.868Z,66.65
2022-08-28T10:02:29.848Z,64.51
2022-08-28T10:03:29.820Z,65.36
2022-08-28T10:04:29.857Z,64.42
2022-08-28T10:05:29.739Z,64.10
2022-08-28T10:06:29.732Z,64.89
2022-08-28T10:07:29.770Z,67.48
2022-08-28T10:08:29.736Z,66.24
2022-08-28T10:09:30.576Z,65.73
2022-08-28T10:10:29.676Z,65.81
2022-08-28T10:11:29.807Z,59.19
2022-08-28T10:12:31.396Z,66.43
2022-08-28T10:13:29.678Z,65.85
2022-08-28T10:14:29.729Z,67.29
2022-08-28T10:15:29.823Z,56.56
2022-08-28T10:16:30.388Z,66.77
2022-08-28T10:17:29.689Z,67.07
2022-08-28T10:18:29.684Z,67.25
2022-08-28T10:19:29.612Z,54.81
2022-08-28T10:20:30.631Z,66.43
2022-08-28T10:21:29.637Z,60.33
2022-08-28T10:22:29.614Z,66.35
2022-08-28T10:23:29.573Z,67.22
2022-08-28T10:24:29.707Z,67.69
2022-08-28T10:25:29.593Z,62.48
2022-08-28T10:26:29.616Z,68.36
2022-08-28T10:27:29.575Z,66.71
2022-08-28T10:28:30.411Z,60.82
2022-08-28T10:29:29.560Z,65.90
2022-08-28T10:30:29.571Z,61.90
2022-08-28T10:31:31.557Z,67.48
2022-08-28T10:32:29.554Z,65.53
2022-08-28T10:33:29.554Z,66.06
2022-08-28T10:34:29.536Z,68.34
2022-08-28T10:35:29.521Z,64.84
2022-08-28T10:36:34.840Z,62.40
2022-08-28T10:37:30.498Z,66.45
2022-08-28T10:38:29.497Z,67.34
2022-08-28T10:39:29.458Z,53.95
2022-08-28T10:40:29.632Z,61.87
2022-08-28T10:41:29.499Z,63.72
2022-08-28T10:42:36.041Z,66.04
2022-08-28T10:43:30.475Z,59.17
2022-08-28T10:45:04.435Z,67.19
2022-08-28T10:45:31.180Z,66.45
2022-08-28T10:46:31.470Z,62.19
2022-08-28T10:47:29.442Z,63.95
2022-08-28T10:49:03.555Z,67.26
2022-08-28T10:49:29.403Z,61.56
2022-08-28T10:50:29.395Z,66.52
2022-08-28T10:51:34.713Z,66.47
2022-08-28T10:52:30.373Z,66.08
2022-08-28T10:53:30.129Z,65.65
2022-08-28T10:54:29.621Z,68.00
2022-08-28T10:55:29.503Z,63.56
2022-08-28T10:56:29.453Z,67.23
2022-08-28T10:57:29.371Z,65.95
2022-08-28T10:58:30.027Z,65.44
2022-08-28T10:59:29.361Z,63.38
2022-08-28T11:00:29.315Z,66.77
2022-08-28T11:01:29.397Z,66.22
2022-08-28T11:02:29.376Z,66.69
2022-08-28T11:03:35.833Z,67.69
2022-08-28T11:04:31.275Z,67.01
2022-08-28T11:05:29.272Z,67.22
2022-08-28T11:06:29.260Z,67.24
2022-08-28T11:07:29.279Z,67.40
2022-08-28T11:08:30.163Z,59.73
2022-08-28T11:09:29.262Z,64.28
2022-08-28T11:10:29.304Z,65.89
2022-08-28T11:11:29.271Z,63.43
2022-08-28T11:12:29.253Z,66.24
2022-08-28T11:13:29.363Z,67.25
2022-08-28T11:14:29.267Z,68.47
2022-08-28T11:15:36.383Z,67.77
2022-08-28T11:16:31.388Z,66.36
2022-08-28T11:17:29.179Z,65.79
2022-08-28T11:18:29.160Z,67.42
2022-08-28T11:19:30.530Z,69.38
2022-08-28T11:20:29.198Z,66.46
2022-08-28T11:21:29.170Z,68.48
2022-08-28T11:22:29.154Z,67.74
2022-08-28T11:23:29.206Z,66.63
2022-08-28T11:24:29.488Z,68.81
2022-08-28T11:25:32.554Z,63.30
2022-08-28T11:26:29.158Z,63.01
2022-08-28T11:27:29.973Z,67.81
2022-08-28T11:28:31.108Z,66.58
2022-08-28T11:29:32.717Z,66.11
2022-08-28T11:30:29.122Z,66.14
2022-08-28T11:31:29.654Z,67.74
2022-08-28T11:32:30.005Z,66.14
2022-08-28T11:33:29.068Z,62.89
2022-08-28T11:34:29.053Z,61.23
2022-08-28T11:35:29.074Z,69.10
2022-08-28T11:36:29.735Z,64.70
2022-08-28T11:37:29.060Z,67.10
2022-08-28T11:38:29.102Z,61.81
2022-08-28T11:39:29.030Z,65.28
2022-08-28T11:40:29.110Z,61.62
2022-08-28T11:41:29.046Z,64.31
2022-08-28T11:42:29.043Z,61.91
2022-08-28T11:43:29.072Z,63.22
2022-08-28T11:44:28.999Z,67.57
2022-08-28T11:45:28.987Z,63.96
2022-08-28T11:46:29.791Z,62.45
2022-08-28T11:47:28.990Z,65.79
2022-08-28T11:48:28.983Z,62.22
2022-08-28T11:49:29.751Z,65.78
2022-08-28T11:50:28.953Z,61.41
2022-08-28T11:51:28.964Z,61.69
2022-08-28T11:52:28.937Z,62.37
2022-08-28T11:53:28.941Z,62.03
2022-08-28T11:54:29.722Z,66.16
2022-08-28T11:55:29.688Z,57.99
2022-08-28T11:56:31.340Z,62.99
2022-08-28T11:57:28.925Z,64.85
2022-08-28T11:58:29.871Z,67.42
2022-08-28T11:59:35.333Z,66.39
2022-08-28T12:00:29.878Z,66.45
2022-08-28T12:01:28.869Z,63.21
2022-08-28T12:02:28.910Z,62.64
2022-08-28T12:03:28.846Z,60.00
2022-08-28T12:04:28.895Z,64.74
2022-08-28T12:05:28.824Z,64.47
2022-08-28T12:06:28.814Z,65.19
2022-08-28T12:07:30.666Z,59.81
2022-08-28T12:08:30.002Z,63.52
2022-08-28T12:09:28.861Z,64.65
2022-08-28T12:10:28.780Z,61.77
2022-08-28T12:11:28.781Z,65.94
2022-08-28T12:12:28.771Z,66.50
2022-08-28T12:13:28.828Z,65.20
2022-08-28T12:14:28.779Z,65.76
2022-08-28T12:15:28.773Z,67.38
2022-08-28T12:16:28.799Z,65.57
2022-08-28T12:17:31.159Z,66.00
2022-08-28T12:18:29.731Z,64.64
2022-08-28T12:19:28.803Z,66.50
2022-08-28T12:20:28.727Z,62.46
2022-08-28T12:21:29.246Z,65.75
2022-08-28T12:22:28.719Z,65.85
2022-08-28T12:23:28.758Z,67.29
2022-08-28T12:24:28.704Z,63.99
2022-08-28T12:25:29.362Z,64.48
2022-08-28T12:26:29.565Z,66.97
2022-08-28T12:27:28.661Z,61.79
2022-08-28T12:28:28.664Z,66.60
2022-08-28T12:29:28.681Z,62.25
2022-08-28T12:30:28.706Z,66.79
2022-08-28T12:31:28.665Z,63.33
2022-08-28T12:32:28.647Z,65.68
2022-08-28T12:33:28.624Z,61.38
2022-08-28T12:34:30.212Z,64.89
2022-08-28T12:35:29.960Z,58.24
2022-08-28T12:36:29.619Z,66.61
2022-08-28T12:37:28.624Z,66.59
2022-08-28T12:38:28.627Z,65.76
2022-08-28T12:39:28.575Z,67.46
2022-08-28T12:40:28.820Z,64.66
2022-08-28T12:41:28.580Z,62.62
2022-08-28T12:42:28.559Z,63.30
2022-08-28T12:43:28.575Z,65.58
2022-08-28T12:44:28.590Z,67.46
2022-08-28T12:45:28.588Z,65.19
2022-08-28T12:46:28.550Z,67.38
2022-08-28T12:47:29.265Z,65.88
2022-08-28T12:48:28.573Z,66.64
2022-08-28T12:49:28.568Z,64.42
2022-08-28T12:50:28.541Z,67.05
2022-08-28T12:51:28.532Z,61.03
2022-08-28T12:52:28.497Z,62.33
2022-08-28T12:53:28.521Z,66.53
2022-08-28T12:54:31.263Z,64.42
2022-08-28T12:55:28.530Z,59.55
2022-08-28T12:56:28.519Z,66.54
2022-08-28T12:57:28.452Z,64.29
2022-08-28T12:58:29.521Z,64.81
2022-08-28T12:59:29.471Z,64.52
2022-08-28T13:00:28.496Z,63.18
2022-08-28T13:01:29.302Z,67.39
2022-08-28T13:02:29.339Z,65.77
2022-08-28T13:03:28.433Z,66.50
2022-08-28T13:04:28.412Z,63.35
2022-08-28T13:05:28.439Z,66.70
2022-08-28T13:06:28.967Z,63.91
2022-08-28T13:07:28.510Z,65.37
2022-08-28T13:08:28.410Z,67.37
2022-08-28T13:09:28.447Z,65.28
2022-08-28T13:10:28.412Z,65.44
2022-08-28T13:11:28.391Z,65.09
2022-08-28T13:12:37.304Z,64.75
2022-08-28T13:13:29.352Z,64.23
2022-08-28T13:14:28.331Z,63.56
2022-08-28T13:15:28.474Z,61.45
2022-08-28T13:16:28.437Z,62.80
2022-08-28T13:17:28.349Z,66.09
2022-08-28T13:18:32.595Z,68.24
2022-08-28T13:19:30.240Z,59.99
2022-08-28T13:20:28.374Z,66.03
2022-08-28T13:21:32.574Z,65.96
2022-08-28T13:22:29.075Z,63.95
2022-08-28T13:23:28.344Z,64.88
2022-08-28T13:24:28.335Z,60.99
2022-08-28T13:25:29.119Z,65.09
2022-08-28T13:26:28.259Z,65.27
2022-08-28T13:27:28.244Z,60.55
2022-08-28T13:28:28.293Z,66.35
2022-08-28T13:29:28.272Z,65.75
2022-08-28T13:30:28.303Z,60.16
2022-08-28T13:31:29.116Z,65.77
2022-08-28T13:32:28.195Z,65.59